Time;durP1;ratioP1;P1;durP2;ratioP2;P2;SDS_P1;SDS_P2;PMS_P1;PMS_P2;Temp;Humidity;BMP_temperature;BMP_pressure;BME280_temperature;BME280_humidity;BME280_pressure;Samples;Min_cycle;Max_cycle;Signal;HPM_P1;HPM_P2
2022/05/03 00:02:13;;;;;;;9.38;8.50;;;;;;;;;;5012952;28;20057;-69
2022/05/03 00:05:03;;;;;;;9.82;8.43;;;;;;;;;;5011906;28;20429;-69
2022/05/03 00:07:55;;;;;;;9.85;8.95;;;;;;;;;;5013322;28;20050;-69
2022/05/03 00:10:31;;;;;;;10.90;9.40;;;;;;;;;;5006317;28;20069;-69
2022/05/03 00:13:06;;;;;;;10.35;9.25;;;;;;;;;;5012709;28;20625;-69
2022/05/03 00:15:35;;;;;;;10.05;9.05;;;;;;;;;;5012208;28;20053;-69
2022/05/03 00:18:02;;;;;;;9.38;8.50;;;;;;;;;;5015400;28;20046;-69
2022/05/03 00:20:29;;;;;;;10.05;9.05;;;;;;;;;;5015206;28;20049;-69
2022/05/03 00:22:56;;;;;;;10.30;8.55;;;;;;;;;;5032623;28;20411;-69
2022/05/03 00:25:22;;;;;;;10.63;8.07;;;;;;;;;;5032268;28;20060;-69
2022/05/03 00:27:49;;;;;;;9.65;8.60;;;;;;;;;;5014866;28;20049;-69
2022/05/03 00:30:16;;;;;;;9.23;8.32;;;;;;;;;;4998910;28;20054;-69
2022/05/03 00:32:43;;;;;;;10.13;8.93;;;;;;;;;;5014785;28;20111;-69
2022/05/03 00:35:10;;;;;;;9.32;8.40;;;;;;;;;;5031055;28;20137;-69
2022/05/03 00:37:37;;;;;;;9.55;8.65;;;;;;;;;;5014801;28;20053;-69
2022/05/03 00:40:04;;;;;;;9.57;8.60;;;;;;;;;;5014731;28;20060;-69
2022/05/03 00:42:45;;;;;;;11.13;9.77;;;;;;;;;;5005117;28;20049;-69
2022/05/03 00:45:14;;;;;;;9.15;8.25;;;;;;;;;;4994827;28;20050;-69
2022/05/03 00:47:57;;;;;;;10.52;9.13;;;;;;;;;;5011264;28;20057;-69
2022/05/03 00:50:24;;;;;;;13.23;9.18;;;;;;;;;;5011389;28;20401;-69
2022/05/03 00:53:37;;;;;;;9.80;8.73;;;;;;;;;;5012275;28;20053;-69
2022/05/03 00:56:12;;;;;;;9.88;8.05;;;;;;;;;;4985592;28;20057;-69
2022/05/03 00:59:06;;;;;;;9.90;8.40;;;;;;;;;;5015405;28;20049;-69
2022/05/03 01:01:41;;;;;;;10.98;8.18;;;;;;;;;;5031783;28;20046;-69
2022/05/03 01:04:18;;;;;;;9.25;8.32;;;;;;;;;;5014395;28;20049;-69
2022/05/03 01:06:50;;;;;;;11.43;9.52;;;;;;;;;;5015177;28;20492;-69
2022/05/03 01:09:24;;;;;;;13.32;9.60;;;;;;;;;;5014388;28;20054;-69
2022/05/03 01:12:13;;;;;;;13.85;11.57;;;;;;;;;;4987736;28;20054;-69
2022/05/03 01:14:52;;;;;;;31.05;18.10;;;;;;;;;;5012115;28;20050;-69
2022/05/03 01:17:32;;;;;;;18.05;13.10;;;;;;;;;;5019538;28;20045;-69
2022/05/03 01:20:03;;;;;;;32.55;18.38;;;;;;;;;;5011086;28;20412;-69
2022/05/03 01:23:05;;;;;;;14.43;12.30;;;;;;;;;;5012181;28;20049;-69
2022/05/03 01:25:44;;;;;;;13.40;11.10;;;;;;;;;;4994467;28;20046;-69
2022/05/03 01:28:38;;;;;;;10.98;9.88;;;;;;;;;;5011959;28;20056;-69
2022/05/03 01:31:10;;;;;;;12.85;10.20;;;;;;;;;;5011835;28;20554;-69
2022/05/03 01:33:45;;;;;;;12.73;9.27;;;;;;;;;;4993195;28;20077;-69
2022/05/03 01:36:12;;;;;;;11.23;9.50;;;;;;;;;;5011935;28;20041;-69
2022/05/03 01:39:02;;;;;;;12.43;10.13;;;;;;;;;;4994417;28;20050;-69
2022/05/03 01:41:56;;;;;;;10.90;9.80;;;;;;;;;;5029145;28;20301;-69
2022/05/03 01:44:50;;;;;;;10.88;9.38;;;;;;;;;;5012160;28;20538;-69
2022/05/03 01:47:23;;;;;;;12.45;11.13;;;;;;;;;;5013027;28;20052;-69
2022/05/03 01:50:19;;;;;;;12.57;9.85;;;;;;;;;;5015903;28;20053;-69
2022/05/03 01:53:10;;;;;;;12.90;10.35;;;;;;;;;;4995031;28;20050;-69
2022/05/03 01:56:04;;;;;;;11.02;9.88;;;;;;;;;;5011604;28;20075;-69
2022/05/03 01:59:07;;;;;;;14.07;10.07;;;;;;;;;;4990890;28;20049;-69
2022/05/03 02:01:40;;;;;;;13.02;11.65;;;;;;;;;;5019728;28;20061;-69
2022/05/03 02:04:15;;;;;;;13.88;10.43;;;;;;;;;;5011728;28;20041;-69
2022/05/03 02:07:00;;;;;;;11.68;10.57;;;;;;;;;;5010671;28;20054;-69
2022/05/03 02:09:36;;;;;;;12.43;11.13;;;;;;;;;;5013149;28;20104;-69
2022/05/03 02:12:08;;;;;;;12.07;10.52;;;;;;;;;;5013501;28;20140;-69
2022/05/03 02:14:46;;;;;;;11.38;10.27;;;;;;;;;;4990693;28;20054;-69
2022/05/03 02:17:32;;;;;;;11.40;10.20;;;;;;;;;;4975941;28;20053;-69
2022/05/03 02:20:14;;;;;;;12.10;11.00;;;;;;;;;;5000003;28;20054;-69
2022/05/03 02:22:49;;;;;;;13.07;11.75;;;;;;;;;;5031176;28;20053;-69
2022/05/03 02:25:20;;;;;;;13.20;11.85;;;;;;;;;;5027183;28;20060;-69
2022/05/03 02:27:52;;;;;;;12.77;11.38;;;;;;;;;;5022070;28;20053;-69
2022/05/03 02:30:19;;;;;;;16.33;11.85;;;;;;;;;;4994477;28;20057;-69
2022/05/03 02:33:05;;;;;;;12.70;11.40;;;;;;;;;;4997675;28;20108;-68
2022/05/03 02:35:34;;;;;;;11.95;10.30;;;;;;;;;;5022304;28;20051;-69
2022/05/03 02:38:06;;;;;;;14.32;11.27;;;;;;;;;;5016962;28;20049;-69
2022/05/03 02:40:33;;;;;;;12.65;11.27;;;;;;;;;;5033956;28;20045;-69
2022/05/03 02:43:00;;;;;;;12.55;11.27;;;;;;;;;;5028144;28;20115;-69
2022/05/03 02:45:27;;;;;;;12.85;10.88;;;;;;;;;;5032713;28;20045;-69
2022/05/03 02:48:14;;;;;;;13.20;11.80;;;;;;;;;;5015918;28;20095;-69
2022/05/03 02:50:48;;;;;;;14.25;12.15;;;;;;;;;;5012787;28;20504;-69
2022/05/03 02:53:44;;;;;;;13.25;11.88;;;;;;;;;;5033119;28;20061;-69
2022/05/03 02:56:21;;;;;;;13.95;12.38;;;;;;;;;;5017485;28;20104;-69
2022/05/03 02:59:21;;;;;;;14.57;13.00;;;;;;;;;;5013305;28;20061;-68
2022/05/03 03:02:14;;;;;;;13.35;11.95;;;;;;;;;;5013139;28;20057;-68
2022/05/03 03:04:46;;;;;;;13.90;12.40;;;;;;;;;;5013352;28;20076;-68
2022/05/03 03:07:19;;;;;;;13.52;12.10;;;;;;;;;;5011358;28;20389;-69
2022/05/03 03:09:54;;;;;;;14.30;12.82;;;;;;;;;;5006870;28;20049;-68
2022/05/03 03:12:24;;;;;;;14.98;12.90;;;;;;;;;;5015620;28;20416;-68
2022/05/03 03:15:04;;;;;;;12.50;11.27;;;;;;;;;;5022421;28;20053;-68
2022/05/03 03:17:30;;;;;;;14.52;12.15;;;;;;;;;;5032825;28;20042;-69
2022/05/03 03:20:10;;;;;;;14.13;12.63;;;;;;;;;;5003840;28;20060;-69
2022/05/03 03:22:41;;;;;;;15.10;12.63;;;;;;;;;;5005684;28;20131;-69
2022/05/03 03:25:10;;;;;;;13.85;12.40;;;;;;;;;;5016259;28;20104;-69
2022/05/03 03:27:38;;;;;;;19.58;13.05;;;;;;;;;;5036541;23;20523;-67
2022/05/03 03:30:06;;;;;;;14.25;12.27;;;;;;;;;;5033741;28;20046;-67
2022/05/03 03:32:36;;;;;;;13.45;11.30;;;;;;;;;;5025309;28;20041;-66
2022/05/03 03:35:03;;;;;;;15.98;12.35;;;;;;;;;;5023930;28;20045;-67
2022/05/03 03:37:33;;;;;;;15.30;12.45;;;;;;;;;;5030077;28;20038;-67
2022/05/03 03:40:04;;;;;;;14.70;13.20;;;;;;;;;;5017468;28;20058;-67
2022/05/03 03:42:30;;;;;;;14.38;12.88;;;;;;;;;;4984491;28;20103;-67
2022/05/03 03:45:02;;;;;;;14.95;13.35;;;;;;;;;;5033022;28;20049;-67
2022/05/03 03:47:30;;;;;;;15.27;12.77;;;;;;;;;;5017671;28;20058;-67
2022/05/03 03:49:57;;;;;;;15.77;13.13;;;;;;;;;;5021927;28;20045;-67
2022/05/03 03:52:25;;;;;;;14.02;12.52;;;;;;;;;;5032723;28;20053;-67
2022/05/03 03:54:53;;;;;;;14.48;12.80;;;;;;;;;;5018794;28;20103;-67
2022/05/03 03:57:27;;;;;;;13.48;12.07;;;;;;;;;;5013316;28;20046;-67
2022/05/03 03:59:53;;;;;;;15.80;12.63;;;;;;;;;;4995849;28;20050;-67
2022/05/03 04:02:21;;;;;;;14.43;12.98;;;;;;;;;;4995922;28;20476;-67
2022/05/03 04:04:48;;;;;;;15.40;11.95;;;;;;;;;;5028966;28;20080;-67
2022/05/03 04:07:15;;;;;;;13.50;12.10;;;;;;;;;;5015327;28;20042;-67
2022/05/03 04:09:42;;;;;;;13.77;12.38;;;;;;;;;;5015525;28;20470;-67
2022/05/03 04:12:08;;;;;;;14.43;12.30;;;;;;;;;;5032629;28;20053;-67
2022/05/03 04:14:35;;;;;;;13.70;12.30;;;;;;;;;;5032737;28;20474;-67
2022/05/03 04:17:02;;;;;;;15.27;13.13;;;;;;;;;;5015057;28;20046;-67
2022/05/03 04:19:29;;;;;;;14.68;13.27;;;;;;;;;;5012987;28;20050;-67
2022/05/03 04:21:55;;;;;;;14.90;12.82;;;;;;;;;;5012727;28;20053;-67
2022/05/03 04:24:22;;;;;;;14.75;12.80;;;;;;;;;;5014155;28;20468;-67
2022/05/03 04:26:49;;;;;;;15.10;13.00;;;;;;;;;;5032128;28;20420;-67
2022/05/03 04:29:15;;;;;;;14.57;12.93;;;;;;;;;;5032381;28;20485;-67
2022/05/03 04:31:42;;;;;;;14.15;12.65;;;;;;;;;;5026616;28;20080;-67
2022/05/03 04:34:08;;;;;;;16.05;12.82;;;;;;;;;;5012793;28;20081;-67
2022/05/03 04:36:35;;;;;;;15.00;12.35;;;;;;;;;;5012443;28;20406;-67
2022/05/03 04:39:03;;;;;;;15.05;13.45;;;;;;;;;;5017211;28;20054;-67
2022/05/03 04:41:30;;;;;;;15.13;13.43;;;;;;;;;;5023226;28;20503;-67
2022/05/03 04:43:57;;;;;;;15.25;12.52;;;;;;;;;;5020883;28;20061;-67
2022/05/03 04:46:24;;;;;;;13.40;12.00;;;;;;;;;;5033836;28;20439;-67
2022/05/03 04:48:50;;;;;;;14.95;12.93;;;;;;;;;;5030629;28;20045;-66
2022/05/03 04:51:22;;;;;;;15.07;12.30;;;;;;;;;;5017145;28;20417;-66
2022/05/03 04:53:48;;;;;;;16.15;14.43;;;;;;;;;;5012101;28;20057;-67
2022/05/03 04:56:22;;;;;;;15.60;12.00;;;;;;;;;;5020230;28;20057;-66
2022/05/03 04:58:50;;;;;;;16.45;12.77;;;;;;;;;;5030533;28;20068;-66
2022/05/03 05:01:17;;;;;;;14.70;11.90;;;;;;;;;;5021328;28;20054;-67
2022/05/03 05:03:44;;;;;;;14.02;12.07;;;;;;;;;;5027120;28;20050;-66
2022/05/03 05:06:11;;;;;;;15.82;12.38;;;;;;;;;;5031996;28;20049;-67
2022/05/03 05:08:38;;;;;;;17.10;11.93;;;;;;;;;;5019259;28;20649;-67
2022/05/03 05:11:05;;;;;;;14.25;12.60;;;;;;;;;;5011838;28;20050;-67
2022/05/03 05:13:32;;;;;;;14.68;12.82;;;;;;;;;;5028770;28;20054;-67
2022/05/03 05:15:59;;;;;;;16.13;13.32;;;;;;;;;;5015641;28;20061;-67
2022/05/03 05:18:26;;;;;;;16.92;13.82;;;;;;;;;;5012252;28;20068;-67
2022/05/03 05:20:53;;;;;;;13.15;11.45;;;;;;;;;;5012170;28;20111;-66
2022/05/03 05:23:26;;;;;;;14.98;11.85;;;;;;;;;;5012237;28;20054;-67
2022/05/03 05:25:54;;;;;;;13.10;11.70;;;;;;;;;;5011648;28;20058;-67
2022/05/03 05:28:22;;;;;;;14.20;12.70;;;;;;;;;;5011669;28;20137;-67
2022/05/03 05:30:51;;;;;;;15.55;12.75;;;;;;;;;;5011730;28;20536;-67
2022/05/03 05:33:18;;;;;;;14.27;12.40;;;;;;;;;;5011532;28;20051;-67
2022/05/03 05:35:45;;;;;;;13.95;11.80;;;;;;;;;;5012042;28;20132;-67
2022/05/03 05:38:16;;;;;;;14.75;13.25;;;;;;;;;;5011900;28;20057;-67
2022/05/03 05:40:43;;;;;;;14.10;12.57;;;;;;;;;;5012057;28;20053;-67
2022/05/03 05:43:10;;;;;;;15.10;13.23;;;;;;;;;;5011908;28;20100;-67
2022/05/03 05:45:39;;;;;;;14.43;12.93;;;;;;;;;;5011715;28;20093;-67
2022/05/03 05:48:08;;;;;;;14.73;13.15;;;;;;;;;;5011728;28;20082;-67
2022/05/03 05:50:35;;;;;;;14.55;12.05;;;;;;;;;;5011713;28;20054;-67
2022/05/03 05:55:48;;;;;;;13.65;11.82;;;;;;;;;;5011836;28;20046;-67
2022/05/03 05:58:14;;;;;;;13.25;11.95;;;;;;;;;;5011527;28;20050;-68
2022/05/03 06:00:41;;;;;;;13.73;12.35;;;;;;;;;;5011702;28;20050;-67
2022/05/03 06:03:07;;;;;;;13.13;11.73;;;;;;;;;;5015053;28;20103;-67
2022/05/03 06:05:34;;;;;;;14.85;12.35;;;;;;;;;;5033247;28;20049;-68
2022/05/03 06:08:00;;;;;;;13.65;11.65;;;;;;;;;;5034874;28;20558;-68
2022/05/03 06:10:28;;;;;;;14.32;11.95;;;;;;;;;;5035060;28;20060;-68
2022/05/03 06:12:54;;;;;;;14.95;12.55;;;;;;;;;;5034976;28;20065;-68
2022/05/03 06:15:21;;;;;;;15.63;12.43;;;;;;;;;;5035063;28;20073;-68
2022/05/03 06:17:48;;;;;;;15.30;11.75;;;;;;;;;;5019863;28;20065;-68
2022/05/03 06:20:14;;;;;;;17.33;12.90;;;;;;;;;;5015453;28;20132;-68
2022/05/03 06:22:41;;;;;;;16.73;13.05;;;;;;;;;;5015124;28;20105;-67
2022/05/03 06:25:09;;;;;;;13.32;12.02;;;;;;;;;;5015107;28;20054;-67
2022/05/03 06:27:36;;;;;;;14.13;12.55;;;;;;;;;;5013055;28;20456;-66
2022/05/03 06:30:04;;;;;;;15.20;12.35;;;;;;;;;;5012866;28;20459;-67
2022/05/03 06:32:31;;;;;;;17.73;12.23;;;;;;;;;;5012498;28;20053;-67
2022/05/03 06:34:57;;;;;;;13.98;11.98;;;;;;;;;;5012970;28;20116;-68
2022/05/03 06:37:24;;;;;;;12.88;11.52;;;;;;;;;;5012871;28;20046;-67
2022/05/03 06:39:51;;;;;;;13.43;12.02;;;;;;;;;;5012413;28;20054;-66
2022/05/03 06:42:18;;;;;;;13.77;11.68;;;;;;;;;;5012308;28;20050;-66
2022/05/03 06:44:46;;;;;;;13.88;10.75;;;;;;;;;;5012989;28;20095;-67
2022/05/03 06:47:12;;;;;;;15.23;12.73;;;;;;;;;;5012333;28;20073;-67
2022/05/03 06:49:39;;;;;;;14.98;12.00;;;;;;;;;;5012720;28;20092;-66
2022/05/03 06:52:06;;;;;;;15.90;11.50;;;;;;;;;;5012400;28;20049;-67
2022/05/03 06:54:32;;;;;;;16.10;12.15;;;;;;;;;;5011758;28;20496;-66
2022/05/03 06:56:59;;;;;;;14.15;11.60;;;;;;;;;;5012259;28;20104;-67
2022/05/03 06:59:25;;;;;;;14.93;10.60;;;;;;;;;;5019124;28;20049;-67
2022/05/03 07:01:52;;;;;;;12.38;11.13;;;;;;;;;;5031976;28;20337;-67
2022/05/03 07:04:19;;;;;;;11.32;10.23;;;;;;;;;;5032175;28;20074;-67
2022/05/03 07:06:45;;;;;;;11.20;10.10;;;;;;;;;;5031745;28;20389;-66
2022/05/03 07:09:12;;;;;;;11.77;10.68;;;;;;;;;;5032577;28;20107;-67
2022/05/03 07:11:39;;;;;;;12.18;10.52;;;;;;;;;;5031925;28;20049;-71
2022/05/03 07:14:05;;;;;;;11.35;10.27;;;;;;;;;;5031680;28;20458;-69
2022/05/03 07:16:32;;;;;;;11.40;10.18;;;;;;;;;;5031512;28;20053;-71
2022/05/03 07:24:29;;;;;;;16.10;9.25;;;;;;;;;;5004659;28;20132;-74
2022/05/03 07:27:00;;;;;;;9.70;8.20;;;;;;;;;;5011765;28;20052;-73
2022/05/03 07:29:27;;;;;;;9.00;8.20;;;;;;;;;;5013360;28;20050;-71
2022/05/03 07:31:54;;;;;;;9.60;8.45;;;;;;;;;;5011794;28;20096;-72
2022/05/03 07:34:21;;;;;;;12.00;7.43;;;;;;;;;;4994943;28;20565;-71
2022/05/03 07:36:47;;;;;;;8.57;7.57;;;;;;;;;;5010983;28;20046;-73
2022/05/03 07:39:14;;;;;;;8.40;7.43;;;;;;;;;;4983973;28;20050;-70
2022/05/03 07:41:40;;;;;;;8.73;7.20;;;;;;;;;;5013199;28;20065;-70
2022/05/03 07:44:07;;;;;;;7.35;6.60;;;;;;;;;;5012117;28;20053;-73
2022/05/03 07:46:34;;;;;;;7.90;6.47;;;;;;;;;;4984802;28;20046;-73
2022/05/03 07:49:00;;;;;;;8.20;7.40;;;;;;;;;;5012032;28;20050;-73
2022/05/03 07:51:27;;;;;;;8.15;7.35;;;;;;;;;;5012125;28;20509;-73
2022/05/03 07:53:54;;;;;;;10.75;6.90;;;;;;;;;;5011735;28;20093;-73
2022/05/03 07:56:20;;;;;;;8.18;7.32;;;;;;;;;;5012246;28;20099;-72
2022/05/03 07:58:47;;;;;;;8.35;7.55;;;;;;;;;;5011916;28;20050;-72
2022/05/03 08:01:14;;;;;;;8.55;6.93;;;;;;;;;;5011885;28;20265;-71
2022/05/03 08:03:41;;;;;;;9.32;7.68;;;;;;;;;;5011506;28;20049;-70
2022/05/03 08:06:07;;;;;;;9.38;7.22;;;;;;;;;;5011652;28;20504;-70
2022/05/03 08:08:34;;;;;;;7.72;7.00;;;;;;;;;;5011313;28;20054;-70
2022/05/03 08:11:00;;;;;;;6.40;5.75;;;;;;;;;;5012106;28;20049;-71
2022/05/03 08:13:27;;;;;;;6.07;5.55;;;;;;;;;;5011367;28;20050;-69
2022/05/03 08:15:54;;;;;;;6.75;5.68;;;;;;;;;;5011939;28;20073;-70
2022/05/03 08:18:20;;;;;;;6.53;5.93;;;;;;;;;;5012597;28;20428;-70
2022/05/03 08:20:47;;;;;;;5.82;5.32;;;;;;;;;;5012635;28;20049;-69
2022/05/03 08:23:14;;;;;;;6.70;6.10;;;;;;;;;;5011877;28;20456;-69
2022/05/03 08:25:40;;;;;;;6.00;5.50;;;;;;;;;;5013713;28;20119;-70
2022/05/03 08:28:07;;;;;;;6.18;5.55;;;;;;;;;;5010464;28;20046;-74
2022/05/03 08:30:34;;;;;;;6.18;5.57;;;;;;;;;;4980679;28;20053;-68
2022/05/03 08:33:02;;;;;;;6.70;5.78;;;;;;;;;;5010454;28;20046;-73
2022/05/03 08:35:34;;;;;;;6.40;5.43;;;;;;;;;;4986284;28;20094;-72
2022/05/03 08:43:39;;;;;;;5.72;5.22;;;;;;;;;;4996295;28;20050;-75
2022/05/03 08:46:06;;;;;;;8.20;4.80;;;;;;;;;;4994009;28;20058;-76
2022/05/03 08:48:34;;;;;;;5.97;5.00;;;;;;;;;;4993876;28;20088;-73
2022/05/03 08:51:00;;;;;;;6.30;5.05;;;;;;;;;;4983573;28;20046;-76
2022/05/03 08:53:27;;;;;;;5.40;4.90;;;;;;;;;;4993502;28;20539;-68
2022/05/03 08:55:53;;;;;;;5.63;4.50;;;;;;;;;;4994241;28;20057;-68
2022/05/03 08:58:20;;;;;;;4.40;4.00;;;;;;;;;;5010826;28;20088;-68
2022/05/03 09:00:47;;;;;;;6.63;4.68;;;;;;;;;;4976532;28;20445;-68
2022/05/03 09:03:15;;;;;;;4.57;4.18;;;;;;;;;;5011092;28;20050;-70
2022/05/03 09:05:46;;;;;;;5.07;4.18;;;;;;;;;;5010648;28;20061;-69
2022/05/03 09:08:13;;;;;;;5.30;4.15;;;;;;;;;;5011013;28;20103;-71
2022/05/03 09:10:42;;;;;;;3.80;3.50;;;;;;;;;;4979448;28;20093;-74
2022/05/03 09:13:29;;;;;;;3.95;3.53;;;;;;;;;;5011100;28;20054;-73
2022/05/03 09:15:57;;;;;;;4.20;3.65;;;;;;;;;;4977207;28;20076;-71
2022/05/03 09:18:28;;;;;;;4.38;4.05;;;;;;;;;;5011066;28;20042;-73
2022/05/03 09:23:48;;;;;;;4.20;3.80;;;;;;;;;;4997763;28;20057;-71
2022/05/03 09:26:22;;;;;;;4.05;3.75;;;;;;;;;;5011090;28;20110;-73
2022/05/03 09:28:55;;;;;;;5.28;4.15;;;;;;;;;;5048195;23;21032;-74
2022/05/03 09:31:42;;;;;;;4.75;4.28;;;;;;;;;;5059341;28;20096;-76
2022/05/03 09:34:25;;;;;;;6.40;3.80;;;;;;;;;;5042257;28;20040;-70
2022/05/03 09:36:58;;;;;;;4.80;3.83;;;;;;;;;;5051420;28;20503;-71
2022/05/03 09:39:38;;;;;;;3.97;3.60;;;;;;;;;;5042096;28;20570;-73
2022/05/03 09:42:16;;;;;;;3.22;2.85;;;;;;;;;;5039492;28;20053;-70
2022/05/03 09:44:53;;;;;;;4.22;3.60;;;;;;;;;;5045509;28;20044;-68
2022/05/03 09:47:30;;;;;;;4.05;3.58;;;;;;;;;;5062049;28;20077;-68
2022/05/03 09:49:57;;;;;;;5.38;3.53;;;;;;;;;;5040308;28;20045;-69
2022/05/03 09:52:29;;;;;;;4.30;3.58;;;;;;;;;;5043834;28;20048;-69
2022/05/03 09:55:04;;;;;;;10.65;3.70;;;;;;;;;;5045897;28;20422;-69
2022/05/03 09:57:33;;;;;;;5.43;3.58;;;;;;;;;;5027047;28;20124;-69
2022/05/03 10:00:01;;;;;;;3.50;3.20;;;;;;;;;;5046758;28;20037;-69
2022/05/03 10:02:28;;;;;;;4.70;3.17;;;;;;;;;;5028213;28;20049;-69
2022/05/03 10:04:56;;;;;;;3.60;3.00;;;;;;;;;;5027633;28;20131;-71
2022/05/03 10:07:27;;;;;;;3.25;2.88;;;;;;;;;;5030583;28;20049;-69
2022/05/03 10:09:53;;;;;;;3.78;2.83;;;;;;;;;;5045997;28;20078;-67
2022/05/03 10:12:20;;;;;;;3.45;3.05;;;;;;;;;;5043870;28;20053;-67
2022/05/03 10:14:48;;;;;;;4.55;2.80;;;;;;;;;;5059923;28;20048;-67
2022/05/03 10:20:38;;;;;;;3.53;3.03;;;;;;;;;;5050402;28;20053;-70
2022/05/03 10:23:30;;;;;;;3.50;3.20;;;;;;;;;;5064538;28;20110;-70
2022/05/03 10:25:59;;;;;;;2.92;2.72;;;;;;;;;;5046235;28;20148;-69
2022/05/03 10:28:26;;;;;;;3.33;3.03;;;;;;;;;;5025248;28;20041;-69
2022/05/03 10:31:05;;;;;;;3.28;2.97;;;;;;;;;;5060175;28;20079;-68
2022/05/03 10:33:31;;;;;;;4.45;4.05;;;;;;;;;;5057723;28;20049;-69
2022/05/03 10:35:59;;;;;;;5.22;4.40;;;;;;;;;;5060309;28;20124;-70
2022/05/03 10:38:40;;;;;;;4.72;3.70;;;;;;;;;;5044309;28;20440;-70
2022/05/03 10:41:09;;;;;;;8.00;5.32;;;;;;;;;;5037995;28;20052;-69
2022/05/03 10:43:37;;;;;;;4.43;4.03;;;;;;;;;;5043578;28;20060;-69
2022/05/03 10:46:19;;;;;;;5.47;4.00;;;;;;;;;;5019417;28;20053;-76
2022/05/03 10:49:03;;;;;;;4.80;3.80;;;;;;;;;;5058624;28;20498;-79
2022/05/03 10:51:30;;;;;;;5.57;4.15;;;;;;;;;;5058294;28;20055;-77
2022/05/03 10:54:00;;;;;;;5.28;4.78;;;;;;;;;;5048087;28;20106;-76
2022/05/03 10:57:11;;;;;;;5.40;4.90;;;;;;;;;;5011039;28;20111;-79
2022/05/03 11:00:50;;;;;;;5.68;5.18;;;;;;;;;;5003101;28;20045;-77
2022/05/03 11:06:59;;;;;;;6.13;4.93;;;;;;;;;;4991058;22;20057;-77
2022/05/03 11:09:27;;;;;;;6.63;5.35;;;;;;;;;;5016601;28;20045;-77
2022/05/03 11:11:56;;;;;;;6.43;5.00;;;;;;;;;;5025532;28;20054;-78
2022/05/03 11:14:24;;;;;;;6.45;5.07;;;;;;;;;;5027951;28;20049;-84
2022/05/03 11:17:08;;;;;;;8.52;5.28;;;;;;;;;;5021816;28;20287;-79
2022/05/03 11:19:38;;;;;;;6.88;4.53;;;;;;;;;;5028429;28;20057;-77
2022/05/03 11:22:09;;;;;;;11.32;4.95;;;;;;;;;;5006332;28;20053;-78
2022/05/03 11:24:40;;;;;;;4.93;4.07;;;;;;;;;;5001020;28;20045;-78
2022/05/03 11:27:11;;;;;;;5.05;4.55;;;;;;;;;;5021422;28;20067;-78
2022/05/03 11:29:41;;;;;;;5.78;5.22;;;;;;;;;;5025994;28;20268;-78
2022/05/03 11:32:09;;;;;;;5.03;4.63;;;;;;;;;;5006551;28;20085;-76
2022/05/03 11:34:36;;;;;;;8.90;5.30;;;;;;;;;;4999805;28;20064;-76
2022/05/03 11:37:03;;;;;;;5.53;4.80;;;;;;;;;;5022209;28;20456;-75
2022/05/03 11:39:30;;;;;;;6.60;4.25;;;;;;;;;;5001986;28;20551;-76
2022/05/03 11:41:57;;;;;;;5.28;3.72;;;;;;;;;;5018466;28;20049;-76
2022/05/03 11:44:26;;;;;;;5.00;3.55;;;;;;;;;;5023079;28;20044;-77
2022/05/03 11:46:53;;;;;;;3.92;3.45;;;;;;;;;;5026823;28;20053;-77
2022/05/03 11:49:23;;;;;;;3.78;3.30;;;;;;;;;;5008243;28;20041;-77
2022/05/03 11:57:40;;;;;;;4.03;3.72;;;;;;;;;;5004559;28;20053;-78
2022/05/03 12:00:13;;;;;;;4.47;4.07;;;;;;;;;;5019236;28;20045;-78
2022/05/03 12:02:42;;;;;;;4.65;3.42;;;;;;;;;;5025695;28;20128;-80
2022/05/03 12:05:19;;;;;;;4.30;3.92;;;;;;;;;;5006389;28;20501;-80
2022/05/03 12:07:56;;;;;;;4.50;3.65;;;;;;;;;;5029364;28;20413;-80
2022/05/03 12:10:33;;;;;;;3.95;3.33;;;;;;;;;;5025093;28;20044;-80
2022/05/03 12:13:12;;;;;;;4.75;3.55;;;;;;;;;;5036445;28;20063;-80
2022/05/03 12:15:49;;;;;;;5.57;3.17;;;;;;;;;;5000393;28;20049;-80
2022/05/03 12:18:29;;;;;;;4.25;2.95;;;;;;;;;;5025431;28;20077;-80
2022/05/03 12:20:57;;;;;;;3.00;2.80;;;;;;;;;;5024239;28;20081;-80
2022/05/03 12:23:26;;;;;;;3.05;2.75;;;;;;;;;;5022096;28;20162;-81
2022/05/03 12:25:54;;;;;;;3.85;2.70;;;;;;;;;;5005829;28;20041;-79
2022/05/03 12:28:34;;;;;;;4.18;3.05;;;;;;;;;;5010101;28;20516;-79
2022/05/03 12:31:03;;;;;;;4.57;2.88;;;;;;;;;;5022546;28;20045;-79
2022/05/03 12:33:30;;;;;;;3.47;2.90;;;;;;;;;;5002262;28;20053;-81
2022/05/03 12:35:57;;;;;;;2.60;2.40;;;;;;;;;;5007466;28;20102;-80
2022/05/03 12:38:25;;;;;;;5.43;3.22;;;;;;;;;;5005912;28;20580;-80
2022/05/03 12:40:58;;;;;;;23.02;13.85;;;;;;;;;;5021923;28;20100;-80
2022/05/03 12:43:26;;;;;;;3.42;2.70;;;;;;;;;;5010736;28;20114;-80
2022/05/03 12:45:57;;;;;;;2.58;2.33;;;;;;;;;;5009016;28;20406;-80
2022/05/03 12:48:29;;;;;;;3.70;3.40;;;;;;;;;;5023778;28;20103;-80
2022/05/03 12:50:56;;;;;;;2.97;2.60;;;;;;;;;;5020958;28;20087;-80
2022/05/03 12:53:33;;;;;;;3.08;2.80;;;;;;;;;;5007786;28;20077;-80
2022/05/03 12:58:21;;;;;;;4.82;2.35;;;;;;;;;;5014434;28;20045;-79
2022/05/03 12:58:48;;;;;;;4.03;3.17;;;;;;;;;;5030943;28;20068;-80
2022/05/03 13:01:16;;;;;;;4.00;3.17;;;;;;;;;;5002062;28;20056;-80
2022/05/03 13:03:43;;;;;;;4.43;3.53;;;;;;;;;;5025167;28;20049;-80
2022/05/03 13:06:10;;;;;;;3.67;3.38;;;;;;;;;;5011916;28;20054;-80
2022/05/03 13:08:37;;;;;;;6.28;3.97;;;;;;;;;;5009138;28;20057;-80
2022/05/03 13:11:04;;;;;;;3.30;3.03;;;;;;;;;;5006476;28;20049;-80
2022/05/03 13:13:31;;;;;;;3.75;3.40;;;;;;;;;;5007961;28;20049;-80
2022/05/03 13:15:57;;;;;;;3.28;3.05;;;;;;;;;;5006812;28;20045;-79
2022/05/03 13:18:24;;;;;;;3.92;3.60;;;;;;;;;;5026374;28;20056;-80
2022/05/03 13:20:51;;;;;;;5.10;3.92;;;;;;;;;;5005690;28;20045;-79
2022/05/03 13:23:18;;;;;;;4.28;3.42;;;;;;;;;;5006952;28;20048;-82
2022/05/03 13:25:45;;;;;;;4.93;4.10;;;;;;;;;;5013866;28;20051;-81
2022/05/03 13:28:12;;;;;;;10.23;4.85;;;;;;;;;;5011962;28;20045;-75
2022/05/03 13:30:39;;;;;;;10.38;5.47;;;;;;;;;;5021583;28;20044;-76
2022/05/03 13:33:06;;;;;;;13.07;5.78;;;;;;;;;;5003416;28;20056;-76
2022/05/03 13:41:03;;;;;;;10.65;6.68;;;;;;;;;;4994533;28;20055;-77
2022/05/03 13:43:30;;;;;;;9.43;7.30;;;;;;;;;;5019760;28;20041;-76
2022/05/03 13:45:58;;;;;;;9.63;6.53;;;;;;;;;;5004511;28;20064;-76
2022/05/03 13:48:26;;;;;;;10.45;6.63;;;;;;;;;;5002806;28;20128;-77
2022/05/03 13:50:52;;;;;;;10.57;7.57;;;;;;;;;;5004658;28;20051;-76
2022/05/03 13:53:19;;;;;;;9.50;7.00;;;;;;;;;;5000702;28;20386;-76
2022/05/03 13:55:46;;;;;;;8.45;6.55;;;;;;;;;;5007965;28;20136;-76
2022/05/03 13:58:13;;;;;;;8.05;6.57;;;;;;;;;;5002650;28;20057;-76
2022/05/03 14:00:40;;;;;;;6.57;5.97;;;;;;;;;;5003452;28;20045;-76
2022/05/03 14:03:12;;;;;;;8.18;7.35;;;;;;;;;;5018843;28;20128;-76
2022/05/03 14:05:39;;;;;;;7.60;6.90;;;;;;;;;;5023111;28;20088;-76
2022/05/03 14:08:10;;;;;;;11.00;8.10;;;;;;;;;;5016647;28;20053;-76
2022/05/03 14:10:37;;;;;;;8.02;7.22;;;;;;;;;;4988854;28;20131;-76
2022/05/03 14:13:04;;;;;;;7.53;6.70;;;;;;;;;;5003910;28;20045;-76
2022/05/03 14:15:31;;;;;;;7.65;6.85;;;;;;;;;;5003803;28;20041;-76
2022/05/03 14:17:58;;;;;;;8.57;7.78;;;;;;;;;;5006838;28;20127;-76
2022/05/03 14:20:26;;;;;;;9.25;6.88;;;;;;;;;;5003570;28;20041;-76
2022/05/03 14:22:53;;;;;;;5.72;5.15;;;;;;;;;;5019507;28;20050;-76
2022/05/03 14:25:23;;;;;;;6.72;5.70;;;;;;;;;;5008537;28;20485;-76
2022/05/03 14:27:49;;;;;;;6.55;5.68;;;;;;;;;;5012653;28;20132;-76
2022/05/03 14:30:18;;;;;;;8.23;6.18;;;;;;;;;;5010351;28;20048;-76
2022/05/03 14:32:46;;;;;;;8.45;6.80;;;;;;;;;;5009487;28;20085;-76
2022/05/03 14:35:13;;;;;;;8.63;6.53;;;;;;;;;;5024107;28;20456;-76
2022/05/03 14:37:40;;;;;;;9.02;5.78;;;;;;;;;;5023014;28;20077;-76
2022/05/03 14:40:07;;;;;;;6.38;5.55;;;;;;;;;;5007181;28;20055;-76
2022/05/03 14:42:34;;;;;;;9.13;5.82;;;;;;;;;;5023141;28;20049;-76
2022/05/03 14:45:01;;;;;;;8.85;5.43;;;;;;;;;;5008085;28;20050;-77
2022/05/03 14:47:28;;;;;;;6.80;5.93;;;;;;;;;;5023827;28;20049;-76
2022/05/03 14:49:55;;;;;;;9.98;6.55;;;;;;;;;;5039689;28;20467;-76
2022/05/03 14:52:22;;;;;;;8.25;6.53;;;;;;;;;;5021343;28;20052;-76
2022/05/03 14:54:48;;;;;;;8.50;7.03;;;;;;;;;;5009062;28;20045;-76
2022/05/03 15:05:30;;;;;;;10.43;8.38;;;;;;;;;;5020457;28;20132;-76
2022/05/03 15:07:58;;;;;;;9.65;8.73;;;;;;;;;;5020954;28;20053;-76
2022/05/03 15:10:30;;;;;;;9.60;8.57;;;;;;;;;;4999872;28;20489;-77
2022/05/03 15:12:58;;;;;;;10.60;9.00;;;;;;;;;;5023606;28;20056;-77
2022/05/03 15:15:26;;;;;;;10.30;9.05;;;;;;;;;;5025046;28;20130;-77
2022/05/03 15:17:53;;;;;;;11.13;9.25;;;;;;;;;;5008819;28;20450;-77
2022/05/03 15:20:22;;;;;;;9.55;8.60;;;;;;;;;;5011955;28;20057;-77
2022/05/03 15:25:35;;;;;;;9.35;7.95;;;;;;;;;;5007862;28;20049;-77
2022/05/03 15:28:01;;;;;;;9.27;8.23;;;;;;;;;;5023907;22;20236;-77
2022/05/03 15:30:28;;;;;;;9.57;8.60;;;;;;;;;;5072362;28;20453;-74
2022/05/03 15:32:57;;;;;;;11.70;8.27;;;;;;;;;;5071249;28;20053;-73
2022/05/03 15:35:24;;;;;;;9.43;8.35;;;;;;;;;;5071591;28;20048;-73
2022/05/03 15:37:52;;;;;;;10.07;8.95;;;;;;;;;;5071754;28;20445;-71
2022/05/03 15:40:24;;;;;;;15.40;8.85;;;;;;;;;;5061734;28;20049;-70